createdAt,value
2018-04-10T00:00:17.066Z,66.14
2018-04-10T00:01:17.059Z,66.5
2018-04-10T00:02:17.189Z,66.58
2018-04-10T00:03:17.075Z,66.6
2018-04-10T00:04:17.059Z,67.03
2018-04-10T00:05:17.075Z,66.57
2018-04-10T00:06:17.126Z,66.93
2018-04-10T00:07:17.109Z,66.94
2018-04-10T00:08:17.103Z,67.04
2018-04-10T00:09:17.091Z,66.4
2018-04-10T00:10:17.079Z,66.49
2018-04-10T00:11:17.089Z,67.36
2018-04-10T00:12:17.116Z,67.27
2018-04-10T00:13:17.099Z,66.86
2018-04-10T00:14:17.107Z,65.98
2018-04-10T00:15:17.105Z,67.52
2018-04-10T00:16:17.111Z,67.08
2018-04-10T00:17:17.200Z,67.96
2018-04-10T00:18:17.111Z,67.13
2018-04-10T00:19:17.133Z,67.35
2018-04-10T00:20:17.133Z,67.01
2018-04-10T00:21:17.118Z,67.61
2018-04-10T00:22:17.209Z,67.75
2018-04-10T00:23:17.130Z,67.99
2018-04-10T00:24:17.129Z,67.02
2018-04-10T00:25:17.157Z,67.17
2018-04-10T00:26:17.140Z,66.8
2018-04-10T00:27:17.174Z,66.38
2018-04-10T00:28:17.164Z,66.47
2018-04-10T00:29:17.147Z,66.96
2018-04-10T00:30:17.143Z,66.9
2018-04-10T00:31:17.171Z,66.72
2018-04-10T00:32:17.177Z,67.81
2018-04-10T00:33:17.163Z,67.34
2018-04-10T00:34:17.283Z,66.48
2018-04-10T00:35:17.159Z,66.52
2018-04-10T00:36:17.168Z,66.7
2018-04-10T00:37:17.221Z,68.34
2018-04-10T00:38:17.162Z,68.04
2018-04-10T00:39:17.176Z,66.89
2018-04-10T00:40:17.186Z,67.24
2018-04-10T00:41:17.177Z,67.1
2018-04-10T00:42:17.207Z,67.13
2018-04-10T00:43:17.189Z,69.06
2018-04-10T00:44:17.247Z,68.39
2018-04-10T00:45:17.203Z,68.39
2018-04-10T00:46:17.188Z,68.42
2018-04-10T00:47:17.236Z,68.95
2018-04-10T00:48:17.211Z,68.06
2018-04-10T00:49:17.201Z,67.74
2018-04-10T00:50:17.214Z,68.37
2018-04-10T00:51:17.212Z,68.28
2018-04-10T00:52:17.219Z,68.08
2018-04-10T00:53:17.225Z,67.54
2018-04-10T00:54:17.223Z,67.4
2018-04-10T00:55:17.220Z,68.11
2018-04-10T00:56:17.231Z,69.12
2018-04-10T00:57:17.251Z,68.7
2018-04-10T00:58:17.242Z,69.23
2018-04-10T00:59:17.253Z,69.01
2018-04-10T01:00:17.239Z,69.02
2018-04-10T01:01:17.245Z,69.19
2018-04-10T01:02:17.240Z,69.37
2018-04-10T01:03:17.249Z,68.81
2018-04-10T01:04:17.247Z,69.23
2018-04-10T01:05:17.250Z,69.26
2018-04-10T01:06:17.272Z,69.49
2018-04-10T01:07:17.280Z,68.88
2018-04-10T01:08:17.296Z,69.01
2018-04-10T01:09:17.268Z,68.66
2018-04-10T01:10:17.311Z,69.06
2018-04-10T01:11:17.283Z,69.91
2018-04-10T01:12:17.287Z,70.08
2018-04-10T01:13:17.271Z,70.42
2018-04-10T01:14:17.277Z,70.18
2018-04-10T01:15:17.294Z,70.07
2018-04-10T01:16:17.296Z,70.49
2018-04-10T01:17:17.318Z,70.5
2018-04-10T01:18:17.443Z,69.7
2018-04-10T01:19:17.311Z,70.2
2018-04-10T01:20:17.308Z,69.49
2018-04-10T01:21:17.315Z,69.58
2018-04-10T01:22:17.330Z,68.82
2018-04-10T01:23:17.317Z,68.87
2018-04-10T01:24:17.345Z,69.54
2018-04-10T01:25:17.342Z,69.29
2018-04-10T01:26:17.348Z,69.28
2018-04-10T01:27:17.375Z,69.5
2018-04-10T01:28:17.489Z,69.33
2018-04-10T01:29:17.325Z,68.91
2018-04-10T01:30:17.344Z,68.66
2018-04-10T01:31:17.348Z,68.52
2018-04-10T01:32:17.344Z,68.66
2018-04-10T01:33:17.348Z,68.97
2018-04-10T01:34:17.353Z,68.54
2018-04-10T01:35:17.348Z,68.9
2018-04-10T01:36:17.526Z,68.78
2018-04-10T01:37:17.357Z,68.23
2018-04-10T01:38:17.371Z,68.92
2018-04-10T01:39:17.385Z,68.68
2018-04-10T01:40:17.425Z,69.09
2018-04-10T01:41:17.356Z,68.78
2018-04-10T01:42:17.579Z,68.76
2018-04-10T01:43:17.414Z,68.93
2018-04-10T01:44:17.375Z,69.28
2018-04-10T01:45:17.390Z,69.05
2018-04-10T01:46:17.385Z,69
2018-04-10T01:47:17.600Z,69.07
2018-04-10T01:48:17.388Z,68.98
2018-04-10T01:49:17.444Z,70.75
2018-04-10T01:50:17.383Z,71.79
2018-04-10T01:51:17.404Z,71.49
2018-04-10T01:52:17.391Z,71.13
2018-04-10T01:53:17.394Z,71.48
2018-04-10T01:54:17.420Z,71.29
2018-04-10T01:55:17.451Z,71.27
2018-04-10T01:56:17.467Z,70.88
2018-04-10T01:57:17.503Z,70.55
2018-04-10T01:58:17.432Z,70.88
2018-04-10T01:59:17.431Z,70.03
2018-04-10T02:00:17.433Z,70.79
2018-04-10T02:01:17.427Z,70.31
2018-04-10T02:02:17.441Z,69.96
2018-04-10T02:03:17.441Z,70.43
2018-04-10T02:04:17.457Z,69.88
2018-04-10T02:05:17.443Z,70.31
2018-04-10T02:06:17.450Z,71.29
2018-04-10T02:07:17.448Z,71.55
2018-04-10T02:08:17.480Z,71.66
2018-04-10T02:09:17.459Z,71.92
2018-04-10T02:10:17.481Z,71.82
2018-04-10T02:11:17.480Z,71.45
2018-04-10T02:12:17.508Z,71.03
2018-04-10T02:13:17.465Z,71.87
2018-04-10T02:14:17.483Z,71.01
2018-04-10T02:15:17.488Z,71.2
2018-04-10T02:16:17.505Z,70.97
2018-04-10T02:17:17.496Z,71.47
2018-04-10T02:18:17.511Z,71.46
2018-04-10T02:19:17.529Z,72.03
2018-04-10T02:20:17.490Z,71.08
2018-04-10T02:21:17.497Z,71.09
2018-04-10T02:22:17.517Z,70.4
2018-04-10T02:23:17.525Z,70.53
2018-04-10T02:24:17.501Z,70.83
2018-04-10T02:25:17.506Z,70.11
2018-04-10T02:26:17.504Z,70.81
2018-04-10T02:27:17.525Z,70.73
2018-04-10T02:28:17.522Z,70.28
2018-04-10T02:29:17.519Z,70.94
2018-04-10T02:30:17.515Z,71.09
2018-04-10T02:31:17.533Z,71.07
2018-04-10T02:32:17.521Z,71.45
2018-04-10T02:33:17.534Z,72.01
2018-04-10T02:34:17.562Z,71.72
2018-04-10T02:35:17.548Z,71.13
2018-04-10T02:36:17.557Z,72.08
2018-04-10T02:37:17.536Z,71.93
2018-04-10T02:38:17.583Z,72.16
2018-04-10T02:39:17.706Z,71.58
2018-04-10T02:40:17.567Z,72.34
2018-04-10T02:41:17.583Z,71.86
2018-04-10T02:42:17.872Z,71.83
2018-04-10T02:43:17.563Z,71.88
2018-04-10T02:44:17.572Z,72.26
2018-04-10T02:45:17.591Z,72.45
2018-04-10T02:46:17.703Z,73.45
2018-04-10T02:47:17.661Z,72.82
2018-04-10T02:48:17.578Z,72.37
2018-04-10T02:49:17.567Z,71.77
2018-04-10T02:50:17.727Z,72.63
2018-04-10T02:51:17.588Z,72.19
2018-04-10T02:52:17.635Z,71.92
2018-04-10T02:53:17.600Z,72.23
2018-04-10T02:54:17.602Z,71.56
2018-04-10T02:55:17.608Z,71.27
2018-04-10T02:56:17.609Z,72.84
2018-04-10T02:57:17.629Z,71.77
2018-04-10T02:58:17.622Z,73.18
2018-04-10T02:59:17.639Z,72.9
2018-04-10T03:00:17.609Z,72.15
2018-04-10T03:01:17.620Z,72.49
2018-04-10T03:02:17.626Z,72.35
2018-04-10T03:03:17.629Z,72.54
2018-04-10T03:04:17.633Z,72.06
2018-04-10T03:05:17.613Z,71.99
2018-04-10T03:06:17.621Z,72.28
2018-04-10T03:07:17.629Z,71.65
2018-04-10T03:08:17.807Z,71.62
2018-04-10T03:09:17.681Z,72.1
2018-04-10T03:10:17.646Z,72.2
2018-04-10T03:11:17.645Z,72.6
2018-04-10T03:12:17.649Z,72.48
2018-04-10T03:13:17.707Z,72.71
2018-04-10T03:14:17.649Z,71.85
2018-04-10T03:15:17.673Z,72.79
2018-04-10T03:16:17.702Z,72.55
2018-04-10T03:17:17.674Z,71.84
2018-04-10T03:18:17.734Z,71.63
2018-04-10T03:19:17.679Z,71.33
2018-04-10T03:20:17.672Z,71.46
2018-04-10T03:21:17.676Z,72.29
2018-04-10T03:22:17.684Z,71.88
2018-04-10T03:23:17.688Z,72.29
2018-04-10T03:24:17.687Z,71.87
2018-04-10T03:25:17.692Z,71.6
2018-04-10T03:26:17.698Z,71.86
2018-04-10T03:27:17.715Z,72.4
2018-04-10T03:28:17.687Z,72.18
2018-04-10T03:29:17.692Z,72.29
2018-04-10T03:30:17.720Z,72.23
2018-04-10T03:31:17.709Z,72.26
2018-04-10T03:32:17.705Z,71.72
2018-04-10T03:33:17.709Z,71.5
2018-04-10T03:34:17.748Z,72.47
2018-04-10T03:35:17.747Z,72.72
2018-04-10T03:36:17.718Z,72.41
2018-04-10T03:37:17.730Z,72.32
2018-04-10T03:38:17.729Z,72.96
2018-04-10T03:39:17.736Z,73.05
2018-04-10T03:40:17.743Z,71.88
2018-04-10T03:41:17.735Z,73
2018-04-10T03:42:17.765Z,72.77
2018-04-10T03:43:17.863Z,72.62
2018-04-10T03:44:17.751Z,72.85
2018-04-10T03:45:17.762Z,73.07
2018-04-10T03:46:17.790Z,72.74
2018-04-10T03:47:17.849Z,73.17
2018-04-10T03:48:17.762Z,72.57
2018-04-10T03:49:17.760Z,73.04
2018-04-10T03:50:17.806Z,72.47
2018-04-10T03:51:17.783Z,72.53
2018-04-10T03:52:17.894Z,72.54
2018-04-10T03:53:17.850Z,71.97
2018-04-10T03:54:17.810Z,73.2
2018-04-10T03:55:17.782Z,72.89
2018-04-10T03:56:17.799Z,72.64
2018-04-10T03:57:17.797Z,71.8
2018-04-10T03:58:17.784Z,71.7
2018-04-10T03:59:17.892Z,71.78
2018-04-10T04:00:17.810Z,72.03
2018-04-10T04:01:17.797Z,72.85
2018-04-10T04:02:17.827Z,72.99
2018-04-10T04:03:17.799Z,72.68
2018-04-10T04:04:17.828Z,72.63
2018-04-10T04:05:17.806Z,72.59
2018-04-10T04:06:17.819Z,72.99
2018-04-10T04:07:17.820Z,72.42
2018-04-10T04:08:17.818Z,72.43
2018-04-10T04:09:17.845Z,72.83
2018-04-10T04:10:17.818Z,72.58
2018-04-10T04:11:17.822Z,71.53
2018-04-10T04:12:17.825Z,72.06
2018-04-10T04:13:17.842Z,72.2
2018-04-10T04:14:17.830Z,72.54
2018-04-10T04:15:17.834Z,72.64
2018-04-10T04:16:17.851Z,72.7
2018-04-10T04:17:17.846Z,73.17
2018-04-10T04:18:17.859Z,72.64
2018-04-10T04:19:17.862Z,72.91
2018-04-10T04:20:17.851Z,72.75
2018-04-10T04:21:17.855Z,72.99
2018-04-10T04:22:17.863Z,73.3
2018-04-10T04:23:17.955Z,72.44
2018-04-10T04:24:17.867Z,72.29
2018-04-10T04:25:17.858Z,73.02
2018-04-10T04:26:17.871Z,72.7
2018-04-10T04:27:17.897Z,71.88
2018-04-10T04:28:17.876Z,72.74
2018-04-10T04:29:17.900Z,72.94
2018-04-10T04:30:17.936Z,73.57
2018-04-10T04:31:17.946Z,74.39
2018-04-10T04:32:17.953Z,74.11
2018-04-10T04:33:17.890Z,73.7
2018-04-10T04:34:18.208Z,73.15
2018-04-10T04:35:17.962Z,73.52
2018-04-10T04:36:17.918Z,74.16
2018-04-10T04:37:17.925Z,73.73
2018-04-10T04:38:17.892Z,72.61
2018-04-10T04:39:17.994Z,73.45
2018-04-10T04:40:17.909Z,72.79
2018-04-10T04:41:18.085Z,73.41
2018-04-10T04:42:17.953Z,73.61
2018-04-10T04:43:17.920Z,73.55
2018-04-10T04:44:17.976Z,73.32
2018-04-10T04:45:17.916Z,73.48
2018-04-10T04:46:17.940Z,73.56
2018-04-10T04:47:18.121Z,73.48
2018-04-10T04:48:17.942Z,73.24
2018-04-10T04:49:17.971Z,73.48
2018-04-10T04:50:17.951Z,72.93
2018-04-10T04:51:17.981Z,73.53
2018-04-10T04:52:17.969Z,73.52
2018-04-10T04:53:17.972Z,73.76
2018-04-10T04:54:18.085Z,73.9
2018-04-10T04:55:17.990Z,73.63
2018-04-10T04:56:18.030Z,72.89
2018-04-10T04:57:18.053Z,72.75
2018-04-10T04:58:17.982Z,73.4
2018-04-10T04:59:17.984Z,73.86
2018-04-10T05:00:18.008Z,74.22
2018-04-10T05:01:17.995Z,73.8
2018-04-10T05:02:18.077Z,74.14
2018-04-10T05:03:17.988Z,73.96
2018-04-10T05:04:18.026Z,74.12
2018-04-10T05:05:18.009Z,73.98
2018-04-10T05:06:18.000Z,73.28
2018-04-10T05:07:18.029Z,73.19
2018-04-10T05:08:18.015Z,73.46
2018-04-10T05:09:18.021Z,74.3
2018-04-10T05:10:18.020Z,73.76
2018-04-10T05:11:18.039Z,74.41
2018-04-10T05:12:18.069Z,74.76
2018-04-10T05:13:18.205Z,74.03
2018-04-10T05:14:18.037Z,74.14
2018-04-10T05:15:18.043Z,74.22
2018-04-10T05:16:18.043Z,73.33
2018-04-10T05:17:18.064Z,73.71
2018-04-10T05:18:18.038Z,73.96
2018-04-10T05:19:18.064Z,72.94
2018-04-10T05:20:18.027Z,74.12
2018-04-10T05:21:18.074Z,73.54
2018-04-10T05:22:18.081Z,73.88
2018-04-10T05:23:18.053Z,73.66
2018-04-10T05:24:18.028Z,72.91
2018-04-10T05:25:18.031Z,72.83
2018-04-10T05:26:18.066Z,73.15
2018-04-10T05:27:18.115Z,73.93
2018-04-10T05:28:18.144Z,73.56
2018-04-10T05:29:18.084Z,73.04
2018-04-10T05:30:18.067Z,74.52
2018-04-10T05:31:18.097Z,73.55
2018-04-10T05:32:18.110Z,73.52
2018-04-10T05:33:18.096Z,72.66
2018-04-10T05:34:18.169Z,72.72
2018-04-10T05:35:18.067Z,73.36
2018-04-10T05:36:18.118Z,73.88
2018-04-10T05:37:18.157Z,73.84
2018-04-10T05:38:18.114Z,72.89
2018-04-10T05:39:18.230Z,73
2018-04-10T05:40:18.101Z,74.13
2018-04-10T05:41:18.108Z,73
2018-04-10T05:42:18.153Z,73
2018-04-10T05:43:18.236Z,74.05
2018-04-10T05:44:18.116Z,73.66
2018-04-10T05:45:18.123Z,73.74
2018-04-10T05:46:18.140Z,73.49
2018-04-10T05:47:18.157Z,72.99
2018-04-10T05:48:18.160Z,73.04
2018-04-10T05:49:18.131Z,73.32
2018-04-10T05:50:18.129Z,72.93
2018-04-10T05:51:18.156Z,73.1
2018-04-10T05:52:18.178Z,72.78
2018-04-10T05:53:18.179Z,73.64
2018-04-10T05:54:18.149Z,73.09
2018-04-10T05:55:18.151Z,73.22
2018-04-10T05:56:18.157Z,73.5
2018-04-10T05:57:18.167Z,73.66
2018-04-10T05:58:18.183Z,73.06
2018-04-10T05:59:18.160Z,73.55
2018-04-10T06:00:18.172Z,73.9
2018-04-10T06:01:18.174Z,73.93
2018-04-10T06:02:18.188Z,73.52
2018-04-10T06:03:18.203Z,73.11
2018-04-10T06:04:18.190Z,73.86
2018-04-10T06:05:18.176Z,73.6
2018-04-10T06:06:18.184Z,73.17
2018-04-10T06:07:18.171Z,73.58
2018-04-10T06:08:18.175Z,73.78
2018-04-10T06:09:18.179Z,73.4
2018-04-10T06:10:18.190Z,73.34
2018-04-10T06:11:18.203Z,73.63
2018-04-10T06:12:18.201Z,73.72
2018-04-10T06:13:18.216Z,73.06
2018-04-10T06:14:18.222Z,73.17
2018-04-10T06:15:18.214Z,73.22
2018-04-10T06:16:18.191Z,73.63
2018-04-10T06:17:18.226Z,73.74
2018-04-10T06:18:18.231Z,73.69
2018-04-10T06:19:18.217Z,73.53
2018-04-10T06:20:18.277Z,73.41
2018-04-10T06:21:18.254Z,73.16
2018-04-10T06:22:18.226Z,73.43
2018-04-10T06:23:18.211Z,74.12
2018-04-10T06:24:18.265Z,73.81
2018-04-10T06:25:18.256Z,73.7
2018-04-10T06:26:18.243Z,73.66
2018-04-10T06:27:18.254Z,73
2018-04-10T06:28:18.247Z,73.08
2018-04-10T06:29:18.348Z,73.76
2018-04-10T06:30:18.319Z,73.54
2018-04-10T06:31:18.241Z,73.16
2018-04-10T06:32:18.259Z,73.04
2018-04-10T06:33:18.269Z,72.93
2018-04-10T06:34:18.271Z,73.04
2018-04-10T06:35:18.260Z,72.81
2018-04-10T06:36:18.245Z,73.38
2018-04-10T06:37:18.434Z,73.57
2018-04-10T06:38:18.307Z,73.92
2018-04-10T06:39:18.265Z,73.51
2018-04-10T06:40:18.385Z,73.05
2018-04-10T06:41:18.295Z,72.7
2018-04-10T06:42:18.287Z,72.73
2018-04-10T06:43:18.383Z,73.01
2018-04-10T06:44:18.296Z,72.75
2018-04-10T06:45:18.336Z,72.09
2018-04-10T06:46:18.355Z,72.19
2018-04-10T06:47:18.294Z,71.64
2018-04-10T06:48:18.302Z,72.2
2018-04-10T06:49:18.398Z,72.98
2018-04-10T06:50:18.391Z,73.87
2018-04-10T06:51:18.321Z,73.97
2018-04-10T06:52:18.317Z,73.95
2018-04-10T06:53:18.375Z,74.32
2018-04-10T06:54:18.333Z,74.24
2018-04-10T06:55:18.337Z,74.19
2018-04-10T06:56:18.437Z,73.52
2018-04-10T06:57:18.339Z,73.45
2018-04-10T06:58:18.367Z,72.95
2018-04-10T06:59:18.328Z,73.55
2018-04-10T07:00:18.335Z,73.76
2018-04-10T07:01:18.329Z,73.42
2018-04-10T07:02:18.444Z,72.73
2018-04-10T07:03:18.371Z,73.66
2018-04-10T07:04:18.346Z,74.37
2018-04-10T07:05:18.415Z,74.38
2018-04-10T07:06:18.361Z,74.8
2018-04-10T07:07:18.368Z,74.1
2018-04-10T07:08:18.355Z,75.21
2018-04-10T07:09:18.364Z,74.9
2018-04-10T07:10:18.418Z,74.6
2018-04-10T07:11:18.357Z,74.85
2018-04-10T07:12:18.372Z,74.32
2018-04-10T07:13:18.406Z,74.55
2018-04-10T07:14:18.388Z,74.46
2018-04-10T07:15:18.384Z,74.61
2018-04-10T07:16:18.371Z,74.19
2018-04-10T07:17:18.385Z,73.41
2018-04-10T07:18:18.394Z,74.6
2018-04-10T07:19:18.396Z,73.65
2018-04-10T07:20:18.412Z,73.14
2018-04-10T07:21:18.430Z,73.04
2018-04-10T07:22:18.406Z,73.55
2018-04-10T07:23:18.405Z,73.51
2018-04-10T07:24:18.403Z,73.22
2018-04-10T07:25:18.419Z,73.37
2018-04-10T07:26:18.417Z,73.07
2018-04-10T07:27:18.408Z,72.89
2018-04-10T07:28:18.469Z,73.42
2018-04-10T07:29:18.433Z,73.28
2018-04-10T07:30:18.456Z,72.7
2018-04-10T07:31:18.438Z,72.67
2018-04-10T07:32:18.524Z,72.46
2018-04-10T07:33:18.440Z,72.07
2018-04-10T07:34:18.452Z,72.17
2018-04-10T07:35:18.446Z,71.75
2018-04-10T07:36:18.452Z,71.73
2018-04-10T07:37:18.462Z,71.39
2018-04-10T07:38:18.511Z,71.6
2018-04-10T07:39:18.441Z,71.2
2018-04-10T07:40:18.500Z,71.51
2018-04-10T07:41:18.508Z,71.39
2018-04-10T07:42:18.481Z,71.34
2018-04-10T07:43:18.478Z,70.18
2018-04-10T07:44:18.462Z,69.92
2018-04-10T07:45:18.638Z,69.67
2018-04-10T07:46:18.550Z,70.18
2018-04-10T07:47:18.514Z,69.99
2018-04-10T07:48:18.468Z,70.25
2018-04-10T07:49:18.478Z,70.09
2018-04-10T07:50:18.567Z,70.25
2018-04-10T07:51:18.486Z,70.31
2018-04-10T07:52:18.504Z,70.14
2018-04-10T07:53:18.500Z,69.91
2018-04-10T07:54:18.514Z,69.15
2018-04-10T07:55:18.499Z,69.11
2018-04-10T07:56:18.521Z,68.08
2018-04-10T07:57:18.534Z,68.9
2018-04-10T07:58:18.518Z,69.34
2018-04-10T07:59:18.539Z,69.16
2018-04-10T08:00:18.548Z,69.01
2018-04-10T08:01:18.516Z,69.16
2018-04-10T08:02:18.506Z,69.04
2018-04-10T08:03:18.663Z,68.81
2018-04-10T08:04:18.600Z,68.52
2018-04-10T08:05:18.605Z,68.55
2018-04-10T08:06:18.532Z,68.42
2018-04-10T08:07:18.583Z,68.39
2018-04-10T08:08:18.541Z,68.55
2018-04-10T08:09:18.577Z,68.46
2018-04-10T08:10:18.553Z,68.66
2018-04-10T08:11:18.602Z,68.51
2018-04-10T08:12:18.544Z,68.61
2018-04-10T08:13:18.565Z,68.55
2018-04-10T08:14:18.555Z,68.79
2018-04-10T08:15:18.559Z,68.28
2018-04-10T08:16:18.571Z,68.14
2018-04-10T08:17:18.562Z,68.06
2018-04-10T08:18:18.563Z,68.09
2018-04-10T08:19:18.564Z,68.22
2018-04-10T08:20:18.568Z,67.83
2018-04-10T08:21:18.575Z,67.9
2018-04-10T08:22:18.628Z,68.05
2018-04-10T08:23:18.591Z,67.6
2018-04-10T08:24:18.590Z,67.41
2018-04-10T08:25:18.580Z,67.47
2018-04-10T08:26:18.626Z,67.72
2018-04-10T08:27:18.596Z,67.5
2018-04-10T08:28:18.593Z,67.54
2018-04-10T08:29:18.632Z,67.38
2018-04-10T08:30:18.616Z,67.66
2018-04-10T08:31:18.628Z,67.13
2018-04-10T08:32:18.614Z,66.9
2018-04-10T08:33:18.621Z,66.69
2018-04-10T08:34:18.632Z,66.02
2018-04-10T08:35:18.624Z,66.2
2018-04-10T08:36:18.804Z,66.67
2018-04-10T08:37:18.634Z,66.42
2018-04-10T08:38:18.668Z,66.28
2018-04-10T08:39:18.715Z,66.17
2018-04-10T08:40:18.638Z,66.48
2018-04-10T08:41:18.678Z,66.72
2018-04-10T08:42:18.625Z,66.53
2018-04-10T08:43:18.646Z,66.53
2018-04-10T08:44:18.647Z,66.8
2018-04-10T08:45:18.639Z,66.98
2018-04-10T08:46:18.645Z,66.05
2018-04-10T08:47:18.649Z,65.01
2018-04-10T08:48:18.652Z,65.03
2018-04-10T08:49:18.656Z,64.37
2018-04-10T08:50:18.774Z,64.8
2018-04-10T08:51:18.658Z,65.05
2018-04-10T08:52:20.980Z,64.42
2018-04-10T08:53:20.534Z,64.79
2018-04-10T08:54:20.845Z,64.32
2018-04-10T08:55:20.775Z,63.27
2018-04-10T08:56:18.720Z,63.15
2018-04-10T08:57:18.704Z,63.39
2018-04-10T08:58:18.682Z,63.96
2018-04-10T08:59:18.704Z,64.26
2018-04-10T09:00:18.722Z,62.92
2018-04-10T09:01:18.705Z,62.77
2018-04-10T09:02:18.723Z,62.56
2018-04-10T09:03:18.739Z,63.2
2018-04-10T09:04:18.716Z,63.17
2018-04-10T09:05:18.756Z,62.9
2018-04-10T09:06:18.712Z,62.41
2018-04-10T09:07:18.737Z,63.27
2018-04-10T09:08:18.714Z,63.47
2018-04-10T09:09:18.904Z,63.49
2018-04-10T09:10:18.744Z,63.21
2018-04-10T09:11:18.717Z,63.43
2018-04-10T09:12:18.822Z,62.9
2018-04-10T09:13:18.761Z,63.34
2018-04-10T09:14:18.737Z,63.17
2018-04-10T09:15:18.777Z,63.22
2018-04-10T09:16:18.824Z,63.41
2018-04-10T09:17:18.771Z,63.17
2018-04-10T09:18:18.758Z,62.48
2018-04-10T09:19:18.751Z,62.29
2018-04-10T09:20:18.749Z,62.21
2018-04-10T09:21:18.755Z,61.89
2018-04-10T09:22:19.000Z,62.06
2018-04-10T09:23:18.797Z,61.99
2018-04-10T09:24:18.765Z,62.03
2018-04-10T09:25:18.769Z,61.61
2018-04-10T09:26:18.783Z,61.96
2018-04-10T09:27:18.844Z,62.19
2018-04-10T09:28:18.781Z,62.04
2018-04-10T09:29:18.781Z,62.58
2018-04-10T09:30:18.825Z,62.28
2018-04-10T09:31:18.785Z,62.18
2018-04-10T09:32:18.813Z,61.2
2018-04-10T09:33:18.791Z,61.42
2018-04-10T09:34:18.829Z,61.68
2018-04-10T09:35:18.849Z,61.58
2018-04-10T09:36:18.832Z,62.01
2018-04-10T09:37:18.822Z,61.8
2018-04-10T09:38:18.917Z,62.29
2018-04-10T09:39:18.801Z,62.45
2018-04-10T09:40:18.817Z,62.21
2018-04-10T09:41:18.826Z,62.34
2018-04-10T09:42:18.837Z,62.17
2018-04-10T09:43:19.166Z,62.24
2018-04-10T09:44:18.864Z,61.99
2018-04-10T09:45:18.837Z,62.14
2018-04-10T09:46:18.920Z,62.58
2018-04-10T09:47:18.875Z,62.71
2018-04-10T09:48:18.918Z,61.44
2018-04-10T09:49:18.858Z,61.24
2018-04-10T09:50:18.867Z,61.22
2018-04-10T09:51:18.940Z,60.33
2018-04-10T09:52:18.863Z,60.67
2018-04-10T09:53:18.865Z,60.96
2018-04-10T09:54:18.862Z,61.15
2018-04-10T09:55:18.880Z,61.45
2018-04-10T09:56:18.956Z,61.08
2018-04-10T09:57:18.869Z,60.99
2018-04-10T09:58:18.884Z,61.6
2018-04-10T09:59:18.861Z,61.06
2018-04-10T10:00:18.894Z,61.24
2018-04-10T10:01:18.943Z,60.88
2018-04-10T10:02:18.911Z,60.37
2018-04-10T10:03:19.012Z,60.52
2018-04-10T10:04:18.915Z,60.29
2018-04-10T10:05:18.912Z,60.58
2018-04-10T10:06:18.899Z,60.73
2018-04-10T10:07:18.874Z,60.12
2018-04-10T10:08:18.907Z,60.7
2018-04-10T10:09:18.893Z,60.36
2018-04-10T10:10:18.892Z,60.31
2018-04-10T10:11:18.965Z,60.71
2018-04-10T10:12:18.902Z,60.45
2018-04-10T10:13:18.971Z,60.34
2018-04-10T10:14:18.976Z,59.92
2018-04-10T10:15:18.974Z,60.32
2018-04-10T10:16:18.928Z,60.25
2018-04-10T10:17:18.935Z,60.42
2018-04-10T10:18:19.040Z,60.12
2018-04-10T10:19:18.943Z,60.75
2018-04-10T10:20:18.933Z,59.88
2018-04-10T10:21:18.941Z,58.74
2018-04-10T10:22:18.951Z,57.95
2018-04-10T10:23:18.968Z,58.52
2018-04-10T10:24:18.963Z,59.52
2018-04-10T10:25:18.960Z,59.45
2018-04-10T10:26:18.951Z,59.24
2018-04-10T10:27:18.959Z,59.02
2018-04-10T10:28:19.007Z,59.34
2018-04-10T10:29:18.968Z,58.71
2018-04-10T10:30:18.957Z,58.79
2018-04-10T10:31:19.008Z,58.96
2018-04-10T10:32:18.981Z,56.58
2018-04-10T10:33:19.007Z,56.71
2018-04-10T10:34:18.986Z,56.43
2018-04-10T10:35:18.989Z,55.88
2018-04-10T10:36:18.983Z,55.83
2018-04-10T10:37:18.993Z,56.74
2018-04-10T10:38:19.022Z,56.11
2018-04-10T10:39:19.009Z,56.36
2018-04-10T10:40:19.018Z,56.33
2018-04-10T10:41:19.210Z,55.68
2018-04-10T10:42:18.997Z,56.23
2018-04-10T10:43:19.032Z,55.85
2018-04-10T10:44:19.009Z,55.93
2018-04-10T10:45:19.029Z,55.42
2018-04-10T10:46:19.025Z,55.46
2018-04-10T10:47:19.018Z,55.7
2018-04-10T10:48:19.036Z,54.8
2018-04-10T10:49:19.026Z,53.61
2018-04-10T10:50:19.035Z,53.33
2018-04-10T10:51:19.040Z,53.57
2018-04-10T10:52:19.154Z,53.94
2018-04-10T10:53:19.069Z,53.8
2018-04-10T10:54:19.060Z,52.29
2018-04-10T10:55:19.048Z,53.33
2018-04-10T10:56:19.054Z,53.47
2018-04-10T10:57:19.090Z,53.44
2018-04-10T10:58:19.086Z,52.75
2018-04-10T10:59:19.076Z,51.71
2018-04-10T11:00:19.088Z,50.79
2018-04-10T11:01:19.091Z,50.08
2018-04-10T11:02:19.056Z,49.88
2018-04-10T11:03:19.071Z,50.91
2018-04-10T11:04:19.063Z,51.56
2018-04-10T11:05:19.105Z,51.95
2018-04-10T11:06:19.095Z,51.89
2018-04-10T11:07:19.110Z,51.71
2018-04-10T11:08:19.068Z,52.32
2018-04-10T11:09:19.144Z,51.88
2018-04-10T11:10:19.122Z,52.27
2018-04-10T11:11:19.157Z,53.05
2018-04-10T11:12:19.130Z,51.76
2018-04-10T11:13:19.093Z,51.78
2018-04-10T11:14:19.104Z,52.58
2018-04-10T11:15:19.133Z,50.93
2018-04-10T11:16:19.122Z,50.77
2018-04-10T11:17:19.116Z,51.62
2018-04-10T11:18:19.144Z,52
2018-04-10T11:19:19.125Z,52.41
2018-04-10T11:20:19.140Z,53.08
2018-04-10T11:21:19.130Z,52.21
2018-04-10T11:22:19.113Z,51.97
2018-04-10T11:23:19.115Z,52.45
2018-04-10T11:24:19.139Z,53.06
2018-04-10T11:25:19.162Z,52.41
2018-04-10T11:26:19.127Z,53.22
2018-04-10T11:27:19.199Z,51.94
2018-04-10T11:28:19.152Z,51.91
2018-04-10T11:29:19.153Z,51.01
2018-04-10T11:30:19.155Z,51.02
2018-04-10T11:31:19.161Z,51.62
2018-04-10T11:32:19.146Z,51.02
2018-04-10T11:33:19.155Z,51.44
2018-04-10T11:34:19.155Z,50.67
2018-04-10T11:35:19.184Z,50.85
2018-04-10T11:36:19.164Z,51.03
2018-04-10T11:37:19.166Z,51.93
2018-04-10T11:38:19.176Z,51.69
2018-04-10T11:39:19.176Z,51.06
2018-04-10T11:40:19.208Z,50.44
2018-04-10T11:41:19.202Z,50.86
2018-04-10T11:42:19.186Z,50.88
2018-04-10T11:43:19.195Z,50.32
2018-04-10T11:44:19.196Z,49.38
2018-04-10T11:45:19.192Z,50.03
2018-04-10T11:46:19.214Z,50.4
2018-04-10T11:47:19.227Z,50.69
2018-04-10T11:48:19.237Z,49.85
2018-04-10T11:49:19.233Z,50.07
2018-04-10T11:50:19.340Z,49.77
2018-04-10T11:51:19.365Z,50.15
2018-04-10T11:52:19.232Z,49.79
2018-04-10T11:53:19.260Z,49.69
2018-04-10T11:54:19.247Z,50
2018-04-10T11:55:19.240Z,49.48
2018-04-10T11:56:19.252Z,49.25
2018-04-10T11:57:19.234Z,49.28
2018-04-10T11:58:19.245Z,49.33
2018-04-10T11:59:19.369Z,47.57
2018-04-10T12:00:19.286Z,47.11
2018-04-10T12:01:19.270Z,46.93
2018-04-10T12:02:19.353Z,47.37
2018-04-10T12:03:19.433Z,47.51
2018-04-10T12:04:19.277Z,47.28
2018-04-10T12:05:19.262Z,47.21
2018-04-10T12:06:19.244Z,47.4
2018-04-10T12:07:19.261Z,47.33
2018-04-10T12:08:19.274Z,47.36
2018-04-10T12:09:19.293Z,47.29
2018-04-10T12:10:19.279Z,47.46
2018-04-10T12:11:19.280Z,48.13
2018-04-10T12:12:19.297Z,47.66
2018-04-10T12:13:19.312Z,47.62
2018-04-10T12:14:19.298Z,47.56
2018-04-10T12:15:19.289Z,47.82
2018-04-10T12:16:19.283Z,47.69
2018-04-10T12:17:19.285Z,47.95
2018-04-10T12:18:19.298Z,47.68
2018-04-10T12:19:19.432Z,48.28
2018-04-10T12:20:19.291Z,48.33
2018-04-10T12:21:19.390Z,48.54
2018-04-10T12:22:19.282Z,48.56
2018-04-10T12:23:19.336Z,48.53
2018-04-10T12:24:19.373Z,48.15
2018-04-10T12:25:19.304Z,48.15
2018-04-10T12:26:19.307Z,48.23
2018-04-10T12:27:19.330Z,48.38
2018-04-10T12:28:19.325Z,47.76
2018-04-10T12:29:19.354Z,47.41
2018-04-10T12:30:19.354Z,48.32
2018-04-10T12:31:19.364Z,47.89
2018-04-10T12:32:19.321Z,47.48
2018-04-10T12:33:19.332Z,48.28
2018-04-10T12:34:19.350Z,47.46
2018-04-10T12:35:19.347Z,46.94
2018-04-10T12:36:19.413Z,46.94
2018-04-10T12:37:19.357Z,46.88
2018-04-10T12:38:19.388Z,46.65
2018-04-10T12:39:19.402Z,47.08
2018-04-10T12:40:19.351Z,47.11
2018-04-10T12:41:19.390Z,47.22
2018-04-10T12:42:19.378Z,47.23
2018-04-10T12:43:19.362Z,47.39
2018-04-10T12:44:19.405Z,46.69
2018-04-10T12:45:19.394Z,47.1
2018-04-10T12:46:19.404Z,46.79
2018-04-10T12:47:19.403Z,46.97
2018-04-10T12:48:19.387Z,47.17
2018-04-10T12:49:19.412Z,46.91
2018-04-10T12:50:19.420Z,47.07
2018-04-10T12:51:19.489Z,47.13
2018-04-10T12:52:19.508Z,47.08
2018-04-10T12:53:19.520Z,47.28
2018-04-10T12:54:19.423Z,47.47
2018-04-10T12:55:19.409Z,46.62